sensor_id;sensor_type;location;lat;lon;timestamp;temperature;humidity
53643;DHT22;39546;45.534;12.048;2023-04-03T00:01:55;15.10;77.60
53643;DHT22;39546;45.534;12.048;2023-04-03T00:07:58;15.00;77.90
53643;DHT22;39546;45.534;12.048;2023-04-03T00:14:15;15.10;77.40
53643;DHT22;39546;45.534;12.048;2023-04-03T00:20:17;15.10;77.10
53643;DHT22;39546;45.534;12.048;2023-04-03T00:26:19;15.10;77.00
53643;DHT22;39546;45.534;12.048;2023-04-03T00:32:22;14.90;77.30
53643;DHT22;39546;45.534;12.048;2023-04-03T00:38:24;14.90;77.20
53643;DHT22;39546;45.534;12.048;2023-04-03T00:50:38;14.80;77.20
53643;DHT22;39546;45.534;12.048;2023-04-03T00:56:41;14.90;77.00
53643;DHT22;39546;45.534;12.048;2023-04-03T01:02:44;14.90;76.70
53643;DHT22;39546;45.534;12.048;2023-04-03T01:08:48;14.90;76.80
53643;DHT22;39546;45.534;12.048;2023-04-03T01:14:54;14.90;76.80
53643;DHT22;39546;45.534;12.048;2023-04-03T01:27:14;14.80;77.30
53643;DHT22;39546;45.534;12.048;2023-04-03T01:33:16;14.80;77.50
53643;DHT22;39546;45.534;12.048;2023-04-03T01:39:21;14.70;77.50
53643;DHT22;39546;45.534;12.048;2023-04-03T01:45:23;14.70;77.30
53643;DHT22;39546;45.534;12.048;2023-04-03T01:51:26;14.50;77.70
53643;DHT22;39546;45.534;12.048;2023-04-03T01:57:28;14.40;77.60
53643;DHT22;39546;45.534;12.048;2023-04-03T02:03:30;14.40;77.70
53643;DHT22;39546;45.534;12.048;2023-04-03T02:09:32;14.40;77.90
53643;DHT22;39546;45.534;12.048;2023-04-03T02:15:38;14.40;78.00
53643;DHT22;39546;45.534;12.048;2023-04-03T02:21:40;14.40;78.10
53643;DHT22;39546;45.534;12.048;2023-04-03T02:27:42;14.40;78.20
53643;DHT22;39546;45.534;12.048;2023-04-03T02:33:44;14.50;78.10
53643;DHT22;39546;45.534;12.048;2023-04-03T02:39:46;14.70;78.50
53643;DHT22;39546;45.534;12.048;2023-04-03T02:45:48;14.90;78.40
53643;DHT22;39546;45.534;12.048;2023-04-03T02:51:50;15.00;78.20
53643;DHT22;39546;45.534;12.048;2023-04-03T02:57:52;15.10;78.40
53643;DHT22;39546;45.534;12.048;2023-04-03T03:03:55;15.00;78.50
53643;DHT22;39546;45.534;12.048;2023-04-03T03:09:57;15.00;78.50
53643;DHT22;39546;45.534;12.048;2023-04-03T03:15:59;15.00;78.30
53643;DHT22;39546;45.534;12.048;2023-04-03T03:22:01;15.10;78.30
53643;DHT22;39546;45.534;12.048;2023-04-03T03:28:03;15.10;78.50
53643;DHT22;39546;45.534;12.048;2023-04-03T03:34:05;14.90;78.60
53643;DHT22;39546;45.534;12.048;2023-04-03T03:40:08;14.80;78.50
53643;DHT22;39546;45.534;12.048;2023-04-03T03:46:12;14.70;78.20
53643;DHT22;39546;45.534;12.048;2023-04-03T03:52:14;14.70;77.80
53643;DHT22;39546;45.534;12.048;2023-04-03T03:58:16;14.70;77.70
53643;DHT22;39546;45.534;12.048;2023-04-03T04:04:18;14.70;77.40
53643;DHT22;39546;45.534;12.048;2023-04-03T04:10:21;14.70;77.20
53643;DHT22;39546;45.534;12.048;2023-04-03T04:16:23;14.70;77.10
53643;DHT22;39546;45.534;12.048;2023-04-03T04:22:26;14.70;76.90
53643;DHT22;39546;45.534;12.048;2023-04-03T04:28:29;14.70;76.70
53643;DHT22;39546;45.534;12.048;2023-04-03T04:34:32;14.70;76.60
53643;DHT22;39546;45.534;12.048;2023-04-03T04:40:34;14.70;76.50
53643;DHT22;39546;45.534;12.048;2023-04-03T04:46:37;14.70;76.30
53643;DHT22;39546;45.534;12.048;2023-04-03T04:52:39;14.80;76.20
53643;DHT22;39546;45.534;12.048;2023-04-03T04:58:42;14.80;76.50
53643;DHT22;39546;45.534;12.048;2023-04-03T05:04:44;14.90;77.30
53643;DHT22;39546;45.534;12.048;2023-04-03T05:10:47;15.00;77.40
53643;DHT22;39546;45.534;12.048;2023-04-03T05:16:50;14.90;77.10
53643;DHT22;39546;45.534;12.048;2023-04-03T05:22:56;14.90;77.10
53643;DHT22;39546;45.534;12.048;2023-04-03T05:28:58;15.00;76.90
53643;DHT22;39546;45.534;12.048;2023-04-03T05:35:00;15.00;76.60
53643;DHT22;39546;45.534;12.048;2023-04-03T05:41:03;15.10;76.90
53643;DHT22;39546;45.534;12.048;2023-04-03T05:47:05;15.10;76.80
53643;DHT22;39546;45.534;12.048;2023-04-03T05:53:25;15.10;76.80
53643;DHT22;39546;45.534;12.048;2023-04-03T05:59:29;15.00;76.80
53643;DHT22;39546;45.534;12.048;2023-04-03T06:05:32;14.90;77.40
53643;DHT22;39546;45.534;12.048;2023-04-03T06:11:34;14.80;77.90
53643;DHT22;39546;45.534;12.048;2023-04-03T06:17:37;14.80;78.60
53643;DHT22;39546;45.534;12.048;2023-04-03T06:23:39;14.90;78.80
53643;DHT22;39546;45.534;12.048;2023-04-03T06:29:42;15.00;79.10
53643;DHT22;39546;45.534;12.048;2023-04-03T06:35:45;15.10;79.10
53643;DHT22;39546;45.534;12.048;2023-04-03T06:41:47;15.00;78.90
53643;DHT22;39546;45.534;12.048;2023-04-03T06:47:50;14.80;79.00
53643;DHT22;39546;45.534;12.048;2023-04-03T06:53:54;14.70;79.10
53643;DHT22;39546;45.534;12.048;2023-04-03T06:59:56;14.60;76.80
53643;DHT22;39546;45.534;12.048;2023-04-03T07:05:58;14.40;77.60
53643;DHT22;39546;45.534;12.048;2023-04-03T07:12:01;14.50;76.30
53643;DHT22;39546;45.534;12.048;2023-04-03T07:18:03;14.20;76.60
53643;DHT22;39546;45.534;12.048;2023-04-03T07:24:06;14.20;77.30
53643;DHT22;39546;45.534;12.048;2023-04-03T07:30:08;14.20;76.60
53643;DHT22;39546;45.534;12.048;2023-04-03T07:36:15;14.20;75.70
53643;DHT22;39546;45.534;12.048;2023-04-03T07:42:18;14.20;75.80
53643;DHT22;39546;45.534;12.048;2023-04-03T07:48:22;14.30;75.80
53643;DHT22;39546;45.534;12.048;2023-04-03T07:54:25;14.40;73.80
53643;DHT22;39546;45.534;12.048;2023-04-03T08:00:27;14.50;74.40
53643;DHT22;39546;45.534;12.048;2023-04-03T08:06:31;14.50;73.90
53643;DHT22;39546;45.534;12.048;2023-04-03T08:12:36;14.60;75.20
53643;DHT22;39546;45.534;12.048;2023-04-03T08:18:39;14.70;73.20
53643;DHT22;39546;45.534;12.048;2023-04-03T08:24:41;14.70;74.10
53643;DHT22;39546;45.534;12.048;2023-04-03T08:30:44;14.60;72.70
53643;DHT22;39546;45.534;12.048;2023-04-03T08:36:47;14.70;73.70
53643;DHT22;39546;45.534;12.048;2023-04-03T08:43:03;14.60;72.70
53643;DHT22;39546;45.534;12.048;2023-04-03T08:49:37;14.60;72.70
53643;DHT22;39546;45.534;12.048;2023-04-03T08:55:43;14.70;72.50
53643;DHT22;39546;45.534;12.048;2023-04-03T09:01:45;14.80;72.40
53643;DHT22;39546;45.534;12.048;2023-04-03T09:14:38;15.10;71.70
53643;DHT22;39546;45.534;12.048;2023-04-03T09:20:46;15.10;71.80
53643;DHT22;39546;45.534;12.048;2023-04-03T09:26:59;15.10;71.00
53643;DHT22;39546;45.534;12.048;2023-04-03T09:33:02;15.00;70.10
53643;DHT22;39546;45.534;12.048;2023-04-03T09:39:07;15.30;70.80
53643;DHT22;39546;45.534;12.048;2023-04-03T09:45:23;15.30;72.00
53643;DHT22;39546;45.534;12.048;2023-04-03T09:51:30;15.50;70.60
53643;DHT22;39546;45.534;12.048;2023-04-03T09:57:33;15.50;69.30
53643;DHT22;39546;45.534;12.048;2023-04-03T10:03:36;15.60;68.90
53643;DHT22;39546;45.534;12.048;2023-04-03T10:09:38;16.00;68.00
53643;DHT22;39546;45.534;12.048;2023-04-03T10:15:46;16.20;67.80
53643;DHT22;39546;45.534;12.048;2023-04-03T10:29:08;15.90;68.40
53643;DHT22;39546;45.534;12.048;2023-04-03T10:35:18;15.90;69.40
53643;DHT22;39546;45.534;12.048;2023-04-03T10:41:29;16.30;69.80
53643;DHT22;39546;45.534;12.048;2023-04-03T10:47:50;16.40;68.30
53643;DHT22;39546;45.534;12.048;2023-04-03T10:54:11;16.70;70.30
53643;DHT22;39546;45.534;12.048;2023-04-03T11:00:19;17.10;68.60
53643;DHT22;39546;45.534;12.048;2023-04-03T11:06:26;17.20;68.30
53643;DHT22;39546;45.534;12.048;2023-04-03T11:19:03;17.40;67.90
53643;DHT22;39546;45.534;12.048;2023-04-03T11:25:18;17.60;67.10
53643;DHT22;39546;45.534;12.048;2023-04-03T11:37:53;18.20;68.10
53643;DHT22;39546;45.534;12.048;2023-04-03T11:50:04;18.30;66.00
53643;DHT22;39546;45.534;12.048;2023-04-03T11:56:28;18.50;65.60
53643;DHT22;39546;45.534;12.048;2023-04-03T12:02:37;18.30;68.60
53643;DHT22;39546;45.534;12.048;2023-04-03T12:14:41;18.70;65.00
53643;DHT22;39546;45.534;12.048;2023-04-03T12:20:53;18.80;65.40
53643;DHT22;39546;45.534;12.048;2023-04-03T12:27:16;18.90;64.60
53643;DHT22;39546;45.534;12.048;2023-04-03T12:34:01;18.90;65.10
53643;DHT22;39546;45.534;12.048;2023-04-03T12:46:26;18.80;64.30
53643;DHT22;39546;45.534;12.048;2023-04-03T12:52:53;18.70;63.20
53643;DHT22;39546;45.534;12.048;2023-04-03T12:59:23;18.70;63.30
53643;DHT22;39546;45.534;12.048;2023-04-03T13:05:25;18.90;61.90
53643;DHT22;39546;45.534;12.048;2023-04-03T13:11:34;19.00;61.40
53643;DHT22;39546;45.534;12.048;2023-04-03T13:17:42;19.10;63.50
53643;DHT22;39546;45.534;12.048;2023-04-03T13:23:48;19.20;62.40
53643;DHT22;39546;45.534;12.048;2023-04-03T13:29:54;19.00;63.00
53643;DHT22;39546;45.534;12.048;2023-04-03T13:42:27;19.00;58.60
53643;DHT22;39546;45.534;12.048;2023-04-03T13:48:52;19.10;60.40
53643;DHT22;39546;45.534;12.048;2023-04-03T13:54:58;19.20;60.00
53643;DHT22;39546;45.534;12.048;2023-04-03T14:01:34;18.90;60.40
53643;DHT22;39546;45.534;12.048;2023-04-03T14:07:39;18.80;61.40
53643;DHT22;39546;45.534;12.048;2023-04-03T14:13:42;18.80;60.20
53643;DHT22;39546;45.534;12.048;2023-04-03T14:19:45;18.90;61.50
53643;DHT22;39546;45.534;12.048;2023-04-03T14:25:47;18.80;60.90
53643;DHT22;39546;45.534;12.048;2023-04-03T14:31:50;18.80;62.50
53643;DHT22;39546;45.534;12.048;2023-04-03T14:37:53;18.90;60.20
53643;DHT22;39546;45.534;12.048;2023-04-03T14:43:55;19.00;60.90
53643;DHT22;39546;45.534;12.048;2023-04-03T14:50:02;19.30;59.80
53643;DHT22;39546;45.534;12.048;2023-04-03T14:56:19;19.50;60.00
53643;DHT22;39546;45.534;12.048;2023-04-03T15:08:28;19.40;59.80
53643;DHT22;39546;45.534;12.048;2023-04-03T15:14:31;19.30;60.40
53643;DHT22;39546;45.534;12.048;2023-04-03T15:20:33;19.30;61.70
53643;DHT22;39546;45.534;12.048;2023-04-03T15:26:35;19.60;62.50
53643;DHT22;39546;45.534;12.048;2023-04-03T15:32:38;19.70;65.90
53643;DHT22;39546;45.534;12.048;2023-04-03T15:38:40;19.60;66.90
53643;DHT22;39546;45.534;12.048;2023-04-03T15:44:42;19.60;66.60
53643;DHT22;39546;45.534;12.048;2023-04-03T15:50:44;19.70;66.00
53643;DHT22;39546;45.534;12.048;2023-04-03T15:56:46;19.60;66.90
53643;DHT22;39546;45.534;12.048;2023-04-03T16:02:52;19.80;64.80
53643;DHT22;39546;45.534;12.048;2023-04-03T16:08:54;20.40;64.70
53643;DHT22;39546;45.534;12.048;2023-04-03T16:14:59;21.00;63.00
53643;DHT22;39546;45.534;12.048;2023-04-03T16:21:02;21.30;64.40
53643;DHT22;39546;45.534;12.048;2023-04-03T16:27:04;21.40;64.40
53643;DHT22;39546;45.534;12.048;2023-04-03T16:33:08;21.40;64.10
53643;DHT22;39546;45.534;12.048;2023-04-03T16:39:10;21.00;62.10
53643;DHT22;39546;45.534;12.048;2023-04-03T16:45:12;19.90;62.00
53643;DHT22;39546;45.534;12.048;2023-04-03T16:51:14;19.00;62.90
53643;DHT22;39546;45.534;12.048;2023-04-03T16:57:17;18.40;61.00
53643;DHT22;39546;45.534;12.048;2023-04-03T17:03:19;17.80;60.20
53643;DHT22;39546;45.534;12.048;2023-04-03T17:09:21;17.50;60.40
53643;DHT22;39546;45.534;12.048;2023-04-03T17:15:25;17.20;62.60
53643;DHT22;39546;45.534;12.048;2023-04-03T17:21:27;17.00;60.50
53643;DHT22;39546;45.534;12.048;2023-04-03T17:27:29;16.80;61.30
53643;DHT22;39546;45.534;12.048;2023-04-03T17:33:32;16.70;62.70
53643;DHT22;39546;45.534;12.048;2023-04-03T17:39:35;16.60;62.50
53643;DHT22;39546;45.534;12.048;2023-04-03T17:45:38;16.50;64.10
53643;DHT22;39546;45.534;12.048;2023-04-03T17:51:40;16.60;63.60
53643;DHT22;39546;45.534;12.048;2023-04-03T17:57:43;16.50;64.00
53643;DHT22;39546;45.534;12.048;2023-04-03T18:03:45;16.50;64.60
53643;DHT22;39546;45.534;12.048;2023-04-03T18:09:51;16.30;64.70
53643;DHT22;39546;45.534;12.048;2023-04-03T18:15:53;16.20;63.80
53643;DHT22;39546;45.534;12.048;2023-04-03T18:22:05;16.10;64.50
53643;DHT22;39546;45.534;12.048;2023-04-03T18:28:08;16.00;64.70
53643;DHT22;39546;45.534;12.048;2023-04-03T18:34:11;15.90;62.80
53643;DHT22;39546;45.534;12.048;2023-04-03T18:40:13;15.90;63.70
53643;DHT22;39546;45.534;12.048;2023-04-03T18:46:15;16.00;65.80
53643;DHT22;39546;45.534;12.048;2023-04-03T18:52:18;16.20;67.30
53643;DHT22;39546;45.534;12.048;2023-04-03T18:58:21;16.00;65.90
53643;DHT22;39546;45.534;12.048;2023-04-03T19:04:24;16.00;67.80
53643;DHT22;39546;45.534;12.048;2023-04-03T19:10:27;15.90;66.30
53643;DHT22;39546;45.534;12.048;2023-04-03T19:16:29;15.70;65.90
53643;DHT22;39546;45.534;12.048;2023-04-03T19:22:31;15.80;68.30
53643;DHT22;39546;45.534;12.048;2023-04-03T19:28:34;16.10;69.10
53643;DHT22;39546;45.534;12.048;2023-04-03T19:34:37;16.10;69.40
53643;DHT22;39546;45.534;12.048;2023-04-03T19:40:39;16.10;68.00
53643;DHT22;39546;45.534;12.048;2023-04-03T19:46:44;16.20;69.40
53643;DHT22;39546;45.534;12.048;2023-04-03T19:52:46;16.10;68.00
53643;DHT22;39546;45.534;12.048;2023-04-03T19:58:49;15.80;67.40
53643;DHT22;39546;45.534;12.048;2023-04-03T20:04:57;15.50;65.20
53643;DHT22;39546;45.534;12.048;2023-04-03T20:10:59;15.30;65.90
53643;DHT22;39546;45.534;12.048;2023-04-03T20:17:02;15.20;65.90
53643;DHT22;39546;45.534;12.048;2023-04-03T20:23:05;15.30;67.50
53643;DHT22;39546;45.534;12.048;2023-04-03T20:29:08;15.20;67.00
53643;DHT22;39546;45.534;12.048;2023-04-03T20:35:10;15.30;68.60
53643;DHT22;39546;45.534;12.048;2023-04-03T20:41:14;15.60;69.80
53643;DHT22;39546;45.534;12.048;2023-04-03T20:47:16;15.70;71.40
53643;DHT22;39546;45.534;12.048;2023-04-03T20:53:18;15.80;70.60
53643;DHT22;39546;45.534;12.048;2023-04-03T20:59:21;15.80;71.80
53643;DHT22;39546;45.534;12.048;2023-04-03T21:05:24;15.90;72.00
53643;DHT22;39546;45.534;12.048;2023-04-03T21:24:11;15.90;72.80
53643;DHT22;39546;45.534;12.048;2023-04-03T21:30:14;15.80;72.70
53643;DHT22;39546;45.534;12.048;2023-04-03T21:36:16;15.70;72.70
53643;DHT22;39546;45.534;12.048;2023-04-03T21:42:18;15.70;73.10
53643;DHT22;39546;45.534;12.048;2023-04-03T21:48:21;15.90;74.10
53643;DHT22;39546;45.534;12.048;2023-04-03T21:54:24;15.70;74.10
53643;DHT22;39546;45.534;12.048;2023-04-03T22:00:26;15.60;74.20
53643;DHT22;39546;45.534;12.048;2023-04-03T22:06:28;15.40;74.50
53643;DHT22;39546;45.534;12.048;2023-04-03T22:12:30;15.40;74.50
53643;DHT22;39546;45.534;12.048;2023-04-03T22:18:33;15.40;74.20
53643;DHT22;39546;45.534;12.048;2023-04-03T22:24:38;15.40;74.20
53643;DHT22;39546;45.534;12.048;2023-04-03T22:30:40;15.20;73.80
53643;DHT22;39546;45.534;12.048;2023-04-03T22:36:42;15.20;74.10
53643;DHT22;39546;45.534;12.048;2023-04-03T22:42:47;15.20;74.10
53643;DHT22;39546;45.534;12.048;2023-04-03T22:48:50;15.00;73.70
53643;DHT22;39546;45.534;12.048;2023-04-03T22:54:52;15.00;73.60
53643;DHT22;39546;45.534;12.048;2023-04-03T23:01:02;15.10;74.10
53643;DHT22;39546;45.534;12.048;2023-04-03T23:07:04;14.90;74.50
53643;DHT22;39546;45.534;12.048;2023-04-03T23:13:06;14.90;74.40
53643;DHT22;39546;45.534;12.048;2023-04-03T23:19:08;15.00;74.50
53643;DHT22;39546;45.534;12.048;2023-04-03T23:25:10;14.90;74.40
53643;DHT22;39546;45.534;12.048;2023-04-03T23:31:13;14.90;75.10
53643;DHT22;39546;45.534;12.048;2023-04-03T23:37:15;14.90;75.20
53643;DHT22;39546;45.534;12.048;2023-04-03T23:43:17;14.90;75.80
53643;DHT22;39546;45.534;12.048;2023-04-03T23:49:19;14.90;76.10
53643;DHT22;39546;45.534;12.048;2023-04-03T23:55:21;14.90;75.80
